Strona główna
METAR-TAF:

METAR-TAF

Lotnisko :

Caribou, Maine, Stany Zjednoczone

Szerokość geograficzna: 46-52-02N, Długość geograficzna: 068-00-48W, wysokość: 191 m

Aktualna obserwacja pogody

Raport powstał 18 minut temu, godzina 00:54 UTC
Wiatr 7 kt od północny zachód
Temperatura -10°C
Wilgotność 61%
Ciśnienie 1025 hPa
Widzialność: 16.1 km
bezchmurnie

METAR: KCAR 230054Z AUTO 31007KT 10SM CLR M10/M16 A3027 RMK AO2 SLP267 T11001156

czas: 20:12 (01:12 UTC)

Prognoza

Raport powstał 1 godzina i 52 minut temu, godzina 23:20 UTC
Prognoza ważna od 23 godzina 00 UTC do 23 godzina 24 UTC
Wiatr 4 kt od północny zachód
Widzialność: 10 km
bezchmurnie
Od 23 godzina 1500 UTC
Wiatr 8 kt od zachód
Widzialność: 10 km
Rozproszone chmury na wysokości 6000 ft

TAF: KCAR 222320Z 2300/2324 31004KT P6SM SKC FM231500 28008KT P6SM SCT060

Obserwacja i prognoza pogody dla ponad 4000 lotnisk (raport METAR i TAF).

Dostępne stacje oznaczono żółtymi i czerwonymi punktami na mapie.

Najedź kursorem aby zobaczyć nazwę stacji.

Kliknij aby zobaczyć obserwacje i prognozy pogody.

Aby zmienić mapę: kliknij na zielony przycisk z czarnym krzyżykiem, aby powiększyć; na zielony przycisk z myślnikiem, aby pomniejszyć; na zielone strzałki, aby przejść do map sąsiednich.


METAR-TAF: